PWSweather.com
Personal Weather Stations
Station Observations

YeovilGB

Lat: 50.949, Lon: -2.627

Elevation: 70

Station Type: Vantage Pro

http://www.yeovil-weather.me.uk/

High Low Average
Temperature 50.1°F10.1°C 29.9°F-1.2°C 40.0°F4.4°C
Dew Point 48.8°F9.3°C 28.7°F-1.8°C 37.9°F3.3°C
Winds 10.4 mph 16.7 kmh Calm Calm 1.0 mph WSW1.6 kmh WSW
Wind Gusts 19.6 mph31.5 kmh -- 3.0 mph4.8 kmh
Humidity 98% 73% 92%
Pressure 30.51 in1033.2 mb 29.96 in1014.6 mb -
Precipitation 0.01 in0.3 mm - -
Hour Temp Dew Point Humidity Winds Wind Gusts Pressure Precip Precip Rate Daily Precip Total
12:00 AM 35.8°F2.1°C 34.0°F1.1°C 93% Calm Calm -- 30.51 in1033.2 mb - 0.00 in0.0 mm 0.00 in0.0 mm
12:10 AM 35.7°F2.1°C 34.1°F1.2°C 94% Calm Calm -- 30.50 in1032.8 mb - 0.00 in0.0 mm 0.00 in0.0 mm
12:20 AM 35.6°F2.0°C 34.0°F1.1°C 94% Calm Calm -- 30.50 in1032.8 mb - 0.00 in0.0 mm 0.00 in0.0 mm
12:30 AM 35.6°F2.0°C 34.1°F1.2°C 94% Calm Calm -- 30.50 in1032.8 mb - 0.00 in0.0 mm 0.00 in0.0 mm
12:40 AM 35.8°F2.1°C 34.2°F1.2°C 94% Calm Calm -- 30.50 in1032.8 mb - 0.00 in0.0 mm 0.00 in0.0 mm
12:50 AM 35.7°F2.1°C 34.1°F1.2°C 94% Calm Calm 2.3 mph3.7 kmh 30.49 in1032.5 mb - 0.00 in0.0 mm 0.00 in0.0 mm
01:00 AM 36.1°F2.3°C 34.8°F1.6°C 95% Calm Calm -- 30.49 in1032.5 mb - 0.00 in0.0 mm 0.00 in0.0 mm
01:10 AM 35.8°F2.1°C 34.2°F1.2°C 94% Calm Calm -- 30.50 in1032.8 mb - 0.00 in0.0 mm 0.00 in0.0 mm
01:20 AM 35.4°F1.9°C 33.8°F1.0°C 94% Calm Calm -- 30.49 in1032.5 mb - 0.00 in0.0 mm 0.00 in0.0 mm
01:30 AM 35.0°F1.7°C 33.5°F0.8°C 94% Calm Calm -- 30.49 in1032.5 mb - 0.00 in0.0 mm 0.00 in0.0 mm
01:40 AM 34.7°F1.5°C 33.2°F0.7°C 94% Calm Calm -- 30.49 in1032.5 mb - 0.00 in0.0 mm 0.00 in0.0 mm
01:50 AM 34.5°F1.4°C 33.0°F0.6°C 94% Calm Calm -- 30.48 in1032.2 mb - 0.00 in0.0 mm 0.00 in0.0 mm
02:00 AM 34.3°F1.3°C 32.8°F0.4°C 94% Calm Calm -- 30.48 in1032.2 mb - 0.00 in0.0 mm 0.00 in0.0 mm
02:10 AM 34.0°F1.1°C 32.5°F0.3°C 94% Calm Calm -- 30.48 in1032.2 mb - 0.00 in0.0 mm 0.00 in0.0 mm
02:20 AM 33.7°F0.9°C 32.2°F0.1°C 94% Calm Calm -- 30.48 in1032.2 mb - 0.00 in0.0 mm 0.00 in0.0 mm
02:30 AM 33.5°F0.8°C 32.0°F0.0°C 94% Calm Calm -- 30.48 in1032.2 mb - 0.00 in0.0 mm 0.00 in0.0 mm
02:40 AM 33.5°F0.8°C 31.9°F-0.1°C 94% Calm Calm -- 30.49 in1032.5 mb - 0.00 in0.0 mm 0.00 in0.0 mm
02:50 AM 33.3°F0.7°C 32.0°F0.0°C 95% Calm Calm 1.2 mph1.9 kmh 30.48 in1032.2 mb - 0.00 in0.0 mm 0.00 in0.0 mm
03:00 AM 33.3°F0.7°C 32.0°F0.0°C 95% Calm Calm -- 30.48 in1032.2 mb - 0.00 in0.0 mm 0.00 in0.0 mm
03:10 AM 33.2°F0.7°C 31.9°F-0.1°C 95% Calm Calm -- 30.48 in1032.2 mb - 0.00 in0.0 mm 0.00 in0.0 mm
03:20 AM 32.9°F0.5°C 31.6°F-0.2°C 95% Calm Calm -- 30.48 in1032.2 mb - 0.00 in0.0 mm 0.00 in0.0 mm
03:30 AM 33.0°F0.6°C 31.7°F-0.2°C 95% Calm Calm -- 30.47 in1031.8 mb - 0.00 in0.0 mm 0.00 in0.0 mm
03:40 AM 32.9°F0.5°C 31.6°F-0.2°C 95% Calm Calm -- 30.47 in1031.8 mb - 0.00 in0.0 mm 0.00 in0.0 mm
03:50 AM 32.7°F0.4°C 31.4°F-0.3°C 95% Calm Calm -- 30.47 in1031.8 mb - 0.00 in0.0 mm 0.00 in0.0 mm
04:00 AM 32.5°F0.3°C 31.2°F-0.4°C 95% Calm Calm -- 30.47 in1031.8 mb - 0.00 in0.0 mm 0.00 in0.0 mm
04:10 AM 32.3°F0.2°C 31.0°F-0.6°C 95% Calm Calm -- 30.47 in1031.8 mb - 0.00 in0.0 mm 0.00 in0.0 mm
04:20 AM 32.1°F0.1°C 30.8°F-0.7°C 95% Calm Calm -- 30.46 in1031.5 mb - 0.00 in0.0 mm 0.00 in0.0 mm
04:30 AM 31.9°F-0.1°C 30.6°F-0.8°C 95% Calm Calm -- 30.46 in1031.5 mb - 0.00 in0.0 mm 0.00 in0.0 mm
04:40 AM 31.7°F-0.2°C 30.4°F-0.9°C 95% Calm Calm -- 30.46 in1031.5 mb - 0.00 in0.0 mm 0.00 in0.0 mm
04:50 AM 31.5°F-0.3°C 30.2°F-1.0°C 95% Calm Calm -- 30.46 in1031.5 mb - 0.00 in0.0 mm 0.00 in0.0 mm
05:00 AM 31.2°F-0.4°C 29.9°F-1.2°C 95% Calm Calm -- 30.45 in1031.2 mb - 0.00 in0.0 mm 0.00 in0.0 mm
05:10 AM 31.1°F-0.5°C 29.8°F-1.2°C 95% Calm Calm -- 30.45 in1031.2 mb - 0.00 in0.0 mm 0.00 in0.0 mm
05:20 AM 31.1°F-0.5°C 29.8°F-1.2°C 95% Calm Calm -- 30.45 in1031.2 mb - 0.00 in0.0 mm 0.00 in0.0 mm
05:30 AM 31.1°F-0.5°C 29.8°F-1.2°C 95% Calm Calm -- 30.45 in1031.2 mb - 0.00 in0.0 mm 0.00 in0.0 mm
05:40 AM 31.0°F-0.6°C 29.7°F-1.3°C 95% Calm Calm -- 30.45 in1031.2 mb - 0.00 in0.0 mm 0.00 in0.0 mm
05:50 AM 30.9°F-0.6°C 29.6°F-1.3°C 95% Calm Calm -- 30.45 in1031.2 mb - 0.00 in0.0 mm 0.00 in0.0 mm
06:00 AM 30.8°F-0.7°C 29.5°F-1.4°C 95% Calm Calm -- 30.45 in1031.2 mb - 0.00 in0.0 mm 0.00 in0.0 mm
06:10 AM 30.7°F-0.7°C 29.4°F-1.4°C 95% Calm Calm -- 30.45 in1031.2 mb - 0.00 in0.0 mm 0.00 in0.0 mm
06:20 AM 30.6°F-0.8°C 29.3°F-1.5°C 95% Calm Calm -- 30.44 in1030.8 mb - 0.00 in0.0 mm 0.00 in0.0 mm
06:30 AM 30.4°F-0.9°C 29.1°F-1.6°C 95% Calm Calm -- 30.44 in1030.8 mb - 0.00 in0.0 mm 0.00 in0.0 mm
06:40 AM 30.2°F-1.0°C 29.0°F-1.7°C 95% Calm Calm -- 30.44 in1030.8 mb - 0.00 in0.0 mm 0.00 in0.0 mm
06:50 AM 30.1°F-1.1°C 28.8°F-1.8°C 95% Calm Calm -- 30.43 in1030.5 mb - 0.00 in0.0 mm 0.00 in0.0 mm
07:00 AM 30.0°F-1.1°C 28.7°F-1.8°C 95% Calm Calm -- 30.43 in1030.5 mb - 0.00 in0.0 mm 0.00 in0.0 mm
07:10 AM 30.1°F-1.1°C 29.1°F-1.6°C 96% Calm Calm -- 30.43 in1030.5 mb - 0.00 in0.0 mm 0.00 in0.0 mm
07:20 AM 30.2°F-1.0°C 29.2°F-1.6°C 96% Calm Calm -- 30.43 in1030.5 mb - 0.00 in0.0 mm 0.00 in0.0 mm
07:30 AM 30.2°F-1.0°C 29.2°F-1.6°C 96% Calm Calm -- 30.43 in1030.5 mb - 0.00 in0.0 mm 0.00 in0.0 mm
07:40 AM 30.1°F-1.1°C 28.9°F-1.7°C 95% Calm Calm -- 30.43 in1030.5 mb - 0.00 in0.0 mm 0.00 in0.0 mm
07:50 AM 30.0°F-1.1°C 28.7°F-1.8°C 95% Calm Calm -- 30.44 in1030.8 mb - 0.00 in0.0 mm 0.00 in0.0 mm
08:00 AM 29.9°F-1.2°C 28.9°F-1.7°C 96% Calm Calm -- 30.44 in1030.8 mb - 0.00 in0.0 mm 0.00 in0.0 mm
08:10 AM 29.9°F-1.2°C 28.9°F-1.7°C 96% Calm Calm -- 30.44 in1030.8 mb - 0.00 in0.0 mm 0.00 in0.0 mm
08:20 AM 29.9°F-1.2°C 28.9°F-1.7°C 96% Calm Calm -- 30.44 in1030.8 mb - 0.00 in0.0 mm 0.00 in0.0 mm
08:30 AM 30.0°F-1.1°C 29.0°F-1.7°C 96% Calm Calm -- 30.45 in1031.2 mb - 0.00 in0.0 mm 0.00 in0.0 mm
08:40 AM 30.1°F-1.1°C 29.1°F-1.6°C 96% Calm Calm -- 30.44 in1030.8 mb - 0.00 in0.0 mm 0.00 in0.0 mm
08:50 AM 30.2°F-1.0°C 29.2°F-1.6°C 96% Calm Calm -- 30.44 in1030.8 mb - 0.00 in0.0 mm 0.00 in0.0 mm
09:00 AM 30.3°F-0.9°C 29.3°F-1.5°C 96% Calm Calm -- 30.44 in1030.8 mb - 0.00 in0.0 mm 0.00 in0.0 mm
09:10 AM 30.5°F-0.8°C 29.5°F-1.4°C 96% Calm Calm -- 30.44 in1030.8 mb - 0.00 in0.0 mm 0.00 in0.0 mm
09:20 AM 30.8°F-0.7°C 29.8°F-1.2°C 96% Calm Calm -- 30.43 in1030.5 mb - 0.00 in0.0 mm 0.00 in0.0 mm
09:30 AM 31.0°F-0.6°C 30.0°F-1.1°C 96% Calm Calm -- 30.43 in1030.5 mb - 0.00 in0.0 mm 0.00 in0.0 mm
09:40 AM 31.3°F-0.4°C 30.3°F-0.9°C 96% Calm Calm -- 30.42 in1030.1 mb - 0.00 in0.0 mm 0.00 in0.0 mm
09:50 AM 31.8°F-0.1°C 30.8°F-0.7°C 96% Calm Calm -- 30.41 in1029.8 mb - 0.00 in0.0 mm 0.00 in0.0 mm
10:00 AM 32.3°F0.2°C 31.3°F-0.4°C 96% Calm Calm -- 30.40 in1029.5 mb - 0.00 in0.0 mm 0.00 in0.0 mm
10:10 AM 33.3°F0.7°C 32.6°F0.3°C 97% Calm Calm -- 30.39 in1029.1 mb - 0.00 in0.0 mm 0.00 in0.0 mm
10:20 AM 34.5°F1.4°C 33.8°F1.0°C 97% Calm Calm -- 30.39 in1029.1 mb - 0.00 in0.0 mm 0.00 in0.0 mm
10:30 AM 35.8°F2.1°C 35.0°F1.7°C 97% Calm Calm -- 30.39 in1029.1 mb - 0.00 in0.0 mm 0.00 in0.0 mm
10:40 AM 37.4°F3.0°C 36.9°F2.7°C 98% Calm Calm -- 30.39 in1029.1 mb - 0.00 in0.0 mm 0.00 in0.0 mm
10:50 AM 39.0°F3.9°C 38.4°F3.6°C 98% Calm Calm -- 30.39 in1029.1 mb - 0.00 in0.0 mm 0.00 in0.0 mm
11:00 AM 40.4°F4.7°C 39.9°F4.4°C 98% Calm Calm -- 30.39 in1029.1 mb - 0.00 in0.0 mm 0.00 in0.0 mm
11:10 AM 41.8°F5.4°C 41.3°F5.2°C 98% Calm Calm -- 30.38 in1028.8 mb - 0.00 in0.0 mm 0.00 in0.0 mm
11:20 AM 42.3°F5.7°C 40.7°F4.8°C 94% 1.2 mph SSE1.9 kmh SSE 2.3 mph3.7 kmh 30.37 in1028.4 mb - 0.00 in0.0 mm 0.00 in0.0 mm
11:30 AM 42.9°F6.1°C 41.0°F5.0°C 93% Calm Calm -- 30.37 in1028.4 mb - 0.00 in0.0 mm 0.00 in0.0 mm
11:40 AM 43.6°F6.4°C 41.2°F5.1°C 91% Calm Calm -- 30.36 in1028.1 mb - 0.00 in0.0 mm 0.00 in0.0 mm
11:50 AM 44.3°F6.8°C 41.5°F5.3°C 90% Calm Calm -- 30.36 in1028.1 mb - 0.00 in0.0 mm 0.00 in0.0 mm
12:00 PM 45.1°F7.3°C 42.4°F5.8°C 90% Calm Calm -- 30.36 in1028.1 mb - 0.00 in0.0 mm 0.00 in0.0 mm
12:10 PM 45.7°F7.6°C 42.0°F5.6°C 87% Calm Calm -- 30.36 in1028.1 mb - 0.00 in0.0 mm 0.00 in0.0 mm
12:20 PM 46.4°F8.0°C 42.4°F5.8°C 86% 1.2 mph S1.9 kmh S 3.5 mph5.6 kmh 30.34 in1027.4 mb - 0.00 in0.0 mm 0.00 in0.0 mm
12:30 PM 46.7°F8.2°C 41.8°F5.4°C 83% 1.2 mph SSW1.9 kmh SSW 2.3 mph3.7 kmh 30.34 in1027.4 mb - 0.00 in0.0 mm 0.00 in0.0 mm
12:40 PM 47.4°F8.6°C 41.6°F5.3°C 80% 2.3 mph SW3.7 kmh SW 6.9 mph11.1 kmh 30.34 in1027.4 mb - 0.00 in0.0 mm 0.00 in0.0 mm
12:50 PM 47.8°F8.8°C 40.6°F4.8°C 76% Calm Calm 2.3 mph3.7 kmh 30.34 in1027.4 mb - 0.00 in0.0 mm 0.00 in0.0 mm
01:00 PM 47.5°F8.6°C 40.3°F4.6°C 76% 1.2 mph SSW1.9 kmh SSW 3.5 mph5.6 kmh 30.33 in1027.1 mb - 0.00 in0.0 mm 0.00 in0.0 mm
01:10 PM 47.6°F8.7°C 40.7°F4.8°C 77% 3.5 mph SW5.6 kmh SW 5.8 mph9.3 kmh 30.32 in1026.8 mb - 0.00 in0.0 mm 0.00 in0.0 mm
01:20 PM 47.4°F8.6°C 40.9°F4.9°C 78% 1.2 mph SW1.9 kmh SW 5.8 mph9.3 kmh 30.32 in1026.8 mb - 0.00 in0.0 mm 0.00 in0.0 mm
01:30 PM 47.2°F8.4°C 40.7°F4.8°C 78% 3.5 mph S5.6 kmh S 4.6 mph7.4 kmh 30.31 in1026.4 mb - 0.00 in0.0 mm 0.00 in0.0 mm
01:40 PM 46.9°F8.3°C 40.4°F4.7°C 78% 2.3 mph S3.7 kmh S 6.9 mph11.1 kmh 30.30 in1026.1 mb - 0.00 in0.0 mm 0.00 in0.0 mm
01:50 PM 46.5°F8.1°C 38.7°F3.7°C 74% 4.6 mph SSW7.4 kmh SSW 5.8 mph9.3 kmh 30.29 in1025.7 mb - 0.00 in0.0 mm 0.00 in0.0 mm
02:00 PM 46.2°F7.9°C 38.0°F3.3°C 73% 3.5 mph S5.6 kmh S 9.2 mph14.8 kmh 30.29 in1025.7 mb - 0.00 in0.0 mm 0.00 in0.0 mm
02:10 PM 46.1°F7.8°C 37.9°F3.3°C 73% 1.2 mph SW1.9 kmh SW 5.8 mph9.3 kmh 30.28 in1025.4 mb - 0.00 in0.0 mm 0.00 in0.0 mm
02:20 PM 46.2°F7.9°C 38.7°F3.7°C 75% 3.5 mph S5.6 kmh S 3.5 mph5.6 kmh 30.27 in1025.1 mb - 0.00 in0.0 mm 0.00 in0.0 mm
02:30 PM 46.3°F7.9°C 39.8°F4.3°C 78% 2.3 mph SSW3.7 kmh SSW 5.8 mph9.3 kmh 30.27 in1025.1 mb - 0.00 in0.0 mm 0.00 in0.0 mm
02:40 PM 46.3°F7.9°C 39.8°F4.3°C 78% Calm Calm 3.5 mph5.6 kmh 30.26 in1024.7 mb - 0.00 in0.0 mm 0.00 in0.0 mm
02:50 PM 46.1°F7.8°C 40.6°F4.8°C 81% 2.3 mph S3.7 kmh S 8.1 mph13.0 kmh 30.26 in1024.7 mb - 0.00 in0.0 mm 0.00 in0.0 mm
03:00 PM 45.8°F7.7°C 41.2°F5.1°C 84% Calm Calm -- 30.25 in1024.4 mb - 0.00 in0.0 mm 0.00 in0.0 mm
03:10 PM 45.6°F7.6°C 41.1°F5.1°C 84% 3.5 mph SSE5.6 kmh SSE 9.2 mph14.8 kmh 30.24 in1024.0 mb - 0.00 in0.0 mm 0.00 in0.0 mm
03:20 PM 45.5°F7.5°C 41.6°F5.3°C 86% 1.2 mph SSE1.9 kmh SSE 1.2 mph1.9 kmh 30.24 in1024.0 mb - 0.00 in0.0 mm 0.00 in0.0 mm
03:30 PM 45.4°F7.4°C 41.5°F5.3°C 86% 3.5 mph S5.6 kmh S 8.1 mph13.0 kmh 30.23 in1023.7 mb - 0.00 in0.0 mm 0.00 in0.0 mm
03:40 PM 45.2°F7.3°C 41.3°F5.2°C 86% 3.5 mph S5.6 kmh S 8.1 mph13.0 kmh 30.23 in1023.7 mb - 0.00 in0.0 mm 0.00 in0.0 mm
04:00 PM 44.8°F7.1°C 41.8°F5.4°C 89% Calm Calm 1.2 mph1.9 kmh 30.22 in1023.4 mb - 0.00 in0.0 mm 0.00 in0.0 mm
04:10 PM 44.6°F7.0°C 41.8°F5.4°C 90% Calm Calm 1.2 mph1.9 kmh 30.21 in1023.0 mb - 0.00 in0.0 mm 0.00 in0.0 mm
04:20 PM 44.3°F6.8°C 41.8°F5.4°C 91% Calm Calm 1.2 mph1.9 kmh 30.20 in1022.7 mb - 0.00 in0.0 mm 0.00 in0.0 mm
04:30 PM 44.0°F6.7°C 41.8°F5.4°C 92% Calm Calm 1.2 mph1.9 kmh 30.19 in1022.4 mb - 0.01 in0.3 mm 0.01 in0.3 mm
04:40 PM 43.9°F6.6°C 42.0°F5.6°C 93% Calm Calm 1.2 mph1.9 kmh 30.18 in1022.0 mb - 0.00 in0.0 mm 0.01 in0.3 mm
04:50 PM 43.8°F6.6°C 42.2°F5.7°C 94% Calm Calm -- 30.18 in1022.0 mb - 0.00 in0.0 mm 0.01 in0.3 mm
05:00 PM 43.7°F6.5°C 42.1°F5.6°C 94% Calm Calm -- 30.17 in1021.7 mb - 0.00 in0.0 mm 0.01 in0.3 mm
05:10 PM 43.6°F6.4°C 42.0°F5.6°C 94% Calm Calm -- 30.16 in1021.3 mb - 0.00 in0.0 mm 0.01 in0.3 mm
05:20 PM 43.6°F6.4°C 42.3°F5.7°C 95% Calm Calm -- 30.16 in1021.3 mb - 0.00 in0.0 mm 0.01 in0.3 mm
05:30 PM 43.6°F6.4°C 42.3°F5.7°C 95% Calm Calm -- 30.16 in1021.3 mb - 0.00 in0.0 mm 0.01 in0.3 mm
05:40 PM 43.6°F6.4°C 42.2°F5.7°C 95% Calm Calm 2.3 mph3.7 kmh 30.15 in1021.0 mb - 0.00 in0.0 mm 0.01 in0.3 mm
05:50 PM 43.6°F6.4°C 42.3°F5.7°C 95% 1.2 mph SSE1.9 kmh SSE 4.6 mph7.4 kmh 30.14 in1020.7 mb - 0.00 in0.0 mm 0.01 in0.3 mm
06:00 PM 43.6°F6.4°C 42.2°F5.7°C 95% Calm Calm -- 30.13 in1020.3 mb - 0.00 in0.0 mm 0.01 in0.3 mm
06:10 PM 43.7°F6.5°C 42.6°F5.9°C 96% Calm Calm 3.5 mph5.6 kmh 30.13 in1020.3 mb - 0.00 in0.0 mm 0.01 in0.3 mm
06:20 PM 44.1°F6.7°C 43.0°F6.1°C 96% Calm Calm 2.3 mph3.7 kmh 30.13 in1020.3 mb - 0.00 in0.0 mm 0.01 in0.3 mm
06:30 PM 44.3°F6.8°C 43.2°F6.2°C 96% 1.2 mph S1.9 kmh S 3.5 mph5.6 kmh 30.12 in1020.0 mb - 0.00 in0.0 mm 0.01 in0.3 mm
06:40 PM 44.6°F7.0°C 43.5°F6.4°C 96% Calm Calm -- 30.12 in1020.0 mb - 0.00 in0.0 mm 0.01 in0.3 mm
06:50 PM 44.9°F7.2°C 43.8°F6.6°C 96% Calm Calm -- 30.11 in1019.6 mb - 0.00 in0.0 mm 0.01 in0.3 mm
07:00 PM 45.0°F7.2°C 43.9°F6.6°C 96% Calm Calm 1.2 mph1.9 kmh 30.11 in1019.6 mb - 0.00 in0.0 mm 0.01 in0.3 mm
07:10 PM 45.2°F7.3°C 44.1°F6.7°C 96% Calm Calm -- 30.11 in1019.6 mb - 0.00 in0.0 mm 0.01 in0.3 mm
07:20 PM 45.7°F7.6°C 44.6°F7.0°C 96% Calm Calm -- 30.10 in1019.3 mb - 0.00 in0.0 mm 0.01 in0.3 mm
07:30 PM 46.2°F7.9°C 45.4°F7.4°C 97% 2.3 mph S3.7 kmh S 6.9 mph11.1 kmh 30.10 in1019.3 mb - 0.00 in0.0 mm 0.01 in0.3 mm
07:40 PM 47.2°F8.4°C 46.4°F8.0°C 97% 3.5 mph S5.6 kmh S 10.4 mph16.7 kmh 30.09 in1019.0 mb - 0.00 in0.0 mm 0.01 in0.3 mm
08:00 PM 48.3°F9.1°C 47.5°F8.6°C 97% 6.9 mph S11.1 kmh S 9.2 mph14.8 kmh 30.07 in1018.3 mb - 0.00 in0.0 mm 0.01 in0.3 mm
08:10 PM 48.6°F9.2°C 47.8°F8.8°C 97% 2.3 mph S3.7 kmh S 3.5 mph5.6 kmh 30.07 in1018.3 mb - 0.00 in0.0 mm 0.01 in0.3 mm
08:20 PM 48.8°F9.3°C 48.0°F8.9°C 97% 1.2 mph S1.9 kmh S 3.5 mph5.6 kmh 30.07 in1018.3 mb - 0.00 in0.0 mm 0.01 in0.3 mm
08:30 PM 49.0°F9.4°C 48.2°F9.0°C 97% 6.9 mph SW11.1 kmh SW 15.0 mph24.1 kmh 30.07 in1018.3 mb - 0.00 in0.0 mm 0.01 in0.3 mm
08:40 PM 49.3°F9.6°C 48.5°F9.2°C 97% 5.8 mph SSW9.3 kmh SSW 8.1 mph13.0 kmh 30.06 in1017.9 mb - 0.00 in0.0 mm 0.01 in0.3 mm
08:50 PM 49.5°F9.7°C 48.7°F9.3°C 97% 4.6 mph SSW7.4 kmh SSW 11.5 mph18.5 kmh 30.05 in1017.6 mb - 0.00 in0.0 mm 0.01 in0.3 mm
09:00 PM 49.6°F9.8°C 48.8°F9.3°C 97% 6.9 mph SW11.1 kmh SW 9.2 mph14.8 kmh 30.05 in1017.6 mb - 0.00 in0.0 mm 0.01 in0.3 mm
09:10 PM 49.7°F9.8°C 48.6°F9.2°C 96% 3.5 mph S5.6 kmh S 5.8 mph9.3 kmh 30.04 in1017.3 mb - 0.00 in0.0 mm 0.01 in0.3 mm
09:20 PM 49.7°F9.8°C 48.6°F9.2°C 96% 5.8 mph SSW9.3 kmh SSW 10.4 mph16.7 kmh 30.03 in1016.9 mb - 0.00 in0.0 mm 0.01 in0.3 mm
09:30 PM 49.8°F9.9°C 48.7°F9.3°C 96% 4.6 mph SW7.4 kmh SW 15.0 mph24.1 kmh 30.03 in1016.9 mb - 0.00 in0.0 mm 0.01 in0.3 mm
09:40 PM 49.9°F9.9°C 48.8°F9.3°C 96% 9.2 mph SSW14.8 kmh SSW 11.5 mph18.5 kmh 30.03 in1016.9 mb - 0.00 in0.0 mm 0.01 in0.3 mm
09:50 PM 49.9°F9.9°C 48.5°F9.2°C 95% 3.5 mph SSW5.6 kmh SSW 9.2 mph14.8 kmh 30.02 in1016.6 mb - 0.00 in0.0 mm 0.01 in0.3 mm
10:00 PM 49.7°F9.8°C 48.4°F9.1°C 95% 4.6 mph SW7.4 kmh SW 9.2 mph14.8 kmh 30.01 in1016.3 mb - 0.00 in0.0 mm 0.01 in0.3 mm
10:10 PM 49.8°F9.9°C 48.4°F9.1°C 95% 5.8 mph SSW9.3 kmh SSW 10.4 mph16.7 kmh 30.01 in1016.3 mb - 0.00 in0.0 mm 0.01 in0.3 mm
10:20 PM 50.0°F10.0°C 48.6°F9.2°C 95% 9.2 mph SSW14.8 kmh SSW 10.4 mph16.7 kmh 30.00 in1015.9 mb - 0.00 in0.0 mm 0.01 in0.3 mm
10:30 PM 50.1°F10.1°C 48.4°F9.1°C 94% 10.4 mph SSW16.7 kmh SSW 12.7 mph20.4 kmh 30.00 in1015.9 mb - 0.00 in0.0 mm 0.01 in0.3 mm
10:40 PM 50.1°F10.1°C 48.4°F9.1°C 94% 4.6 mph SW7.4 kmh SW 10.4 mph16.7 kmh 29.99 in1015.6 mb - 0.00 in0.0 mm 0.01 in0.3 mm
10:50 PM 50.1°F10.1°C 47.8°F8.8°C 92% 9.2 mph SW14.8 kmh SW 13.8 mph22.2 kmh 29.98 in1015.2 mb - 0.00 in0.0 mm 0.01 in0.3 mm
11:00 PM 49.9°F9.9°C 47.4°F8.6°C 91% 6.9 mph SSW11.1 kmh SSW 16.1 mph25.9 kmh 29.97 in1014.9 mb - 0.00 in0.0 mm 0.01 in0.3 mm
11:10 PM 50.1°F10.1°C 47.3°F8.5°C 90% 6.9 mph SSW11.1 kmh SSW 19.6 mph31.5 kmh 29.97 in1014.9 mb - 0.00 in0.0 mm 0.01 in0.3 mm
11:20 PM 50.1°F10.1°C 47.0°F8.3°C 89% 9.2 mph SW14.8 kmh SW 10.4 mph16.7 kmh 29.97 in1014.9 mb - 0.00 in0.0 mm 0.01 in0.3 mm
11:30 PM 49.9°F9.9°C 46.5°F8.1°C 88% 9.2 mph SSW14.8 kmh SSW 15.0 mph24.1 kmh 29.97 in1014.9 mb - 0.00 in0.0 mm 0.01 in0.3 mm
11:40 PM 49.7°F9.8°C 46.0°F7.8°C 87% 9.2 mph SW14.8 kmh SW 13.8 mph22.2 kmh 29.96 in1014.6 mb - 0.00 in0.0 mm 0.01 in0.3 mm
11:50 PM 49.5°F9.7°C 45.5°F7.5°C 86% 8.1 mph SW13.0 kmh SW 12.7 mph20.4 kmh 29.97 in1014.9 mb - 0.00 in0.0 mm 0.01 in0.3 mm